首页
METAR-TAF:

METAR-TAF

机场 :

阿纳姆, 荷兰

纬度: 52-04N, 经度: 005-53E, 海拔: 48米

当前天气观测

该预报发布于14分钟前的00:25 UTC
风速6节,风向东南,在东转东北之间变化
温度 4°C
湿度 100%
气压 999 hPa
能见度10公里或以上
阴天层高于11000英尺

METAR: EHDL 140025Z AUTO 14006KT 070V190 9999 OVC110 04/04 Q0999 BLU

时间: 01:39 (00:39 UTC)

预报

该预报发布于6小时和47分钟前的17:52 UTC
预报有效从13日的 18点(UTC)到 14日的 06点(UTC)
风速3节,风向多变
能见度10公里或以上
散云层高于3000英尺
多云层高于4000英尺
成为
从 13日的 18点(UTC)到 13日的 21点(UTC)
风速9节,风向
几率 30%
从 13日的 21点(UTC)到 14日的 02点(UTC)
多云层高于800英尺
成为
从 14日的 02点(UTC)到 14日的 05点(UTC)
风速9节,风向东南

TAF: EHDL 131752Z 1318/1406 VRB03KT 9999 SCT030 BKN040 BECMG 1318/1321 18009KT PROB30 1321/1402 BKN008 BECMG 1402/1405 13009KT

超过4000个机场的气象观测和天气预报(METAR&TAF报告)。

可查询的气象台以黄色和红色小点在地图上表示。

将鼠标移到小点上方,可查看气象台名称。

然后点击查看天气观测和预报。

如需切换地图:点击带黑十字的绿色按钮放大地图;点击带横线的绿色按钮缩小地图;或者点击绿色箭头查看邻近地区的地图。


METAR-TAF: